Santa Barbara — 3FWW8 — position and weather

sailwx.info

Track history (hours):
 
Tides and Currents Weather Stations Pressure Air Temp Water Temp Dewpoint Dewpoint Depression Visibility Wind Speed Wind Dir Waves Ship Positions

Santa Barbara

Last reported at 2014-Aug-12 22:18 UTC. Time now 2014-Aug-29 20:21 UTC.
Position S 35°10' E 019°46'.
Warning: this ship's position is 16 days out of date.

Length 225 m; draft 12.8 m.

Type: Cargo ship. MMSI: 372230000.

Date/timePositionNaut miles runAvg speedWind from/ knotsBaromVisibWave heightAir tempDewpointWater temp
2014-Aug-12 22:18S 35°10' E 019°46'1011.4
2014-Aug-12 21:26S 35°06' E 019°35'1111.4
2014-Aug-12 20:29S 35°02' E 019°23'1011.2
2014-Aug-12 19:33S 34°57' E 019°12'1111.4
2014-Aug-12 18:33S 34°53' E 018°59'1111.4
2014-Aug-12 17:33S 34°48' E 018°46'1111.1
2014-Aug-12 16:33S 34°43' E 018°34'1111.1
2014-Aug-12 15:33S 34°39' E 018°22'1511.4
2014-Aug-12 14:14S 34°33' E 018°05'911.7
2014-Aug-12 13:28S 34°30' E 017°55'  
Track history (hours):
 
Tides and Currents Weather Stations Pressure Air Temp Water Temp Dewpoint Dewpoint Depression Visibility Wind Speed Wind Dir Waves Ship Positions

Santa Barbara

Last reported at 2014-Aug-12 22:18 UTC. Time now 2014-Aug-29 20:21 UTC.
Position S 35°10' E 019°46'.
Warning: this ship's position is 16 days out of date.

Length 225 m; draft 12.8 m.

Type: Cargo ship. MMSI: 372230000.

Date/timePositionNaut miles runAvg speedWind from/ knotsBaromVisibWave heightAir tempDewpointWater temp
2014-Aug-12 22:18S 35°10' E 019°46'1011.4
2014-Aug-12 21:26S 35°06' E 019°35'1111.4
2014-Aug-12 20:29S 35°02' E 019°23'1011.2
2014-Aug-12 19:33S 34°57' E 019°12'1111.4
2014-Aug-12 18:33S 34°53' E 018°59'1111.4
2014-Aug-12 17:33S 34°48' E 018°46'1111.1
2014-Aug-12 16:33S 34°43' E 018°34'1111.1
2014-Aug-12 15:33S 34°39' E 018°22'1511.4
2014-Aug-12 14:14S 34°33' E 018°05'911.7
2014-Aug-12 13:28S 34°30' E 017°55'  

Dump ship's entire track history